Latest Weather Observations for Mallacoota

IDV60801

Issued at 10:22 pm EST Thursday 20 June 2019 (issued every 10 minutes, with the page automatically refreshed every 10 minutes)

About weather observations | Map of weather stations | Latest weather observations for VIC | Other Formats
Station Details ID: 084084 Name: MALLACOOTA Lat: -37.60 Lon: 149.73 Height: 22.0 m
Data from the previous 72 hours. | See also: Recent months at Mallacoota
Date/Time
EST
Temp
°C
App
Temp
°C
Dew
Point
°C
Rel
Hum
%
Delta-T
°C
Wind Press
QNH
hPa
Press
MSL
hPa
Rain since
9am
mm
Dir  Spd
km/h
Gust
km/h
Spd
kts
Gust
kts
20/10:00pm 9.0 5.2 4.0 71 2.2 WNW 13 19 7 10 1022.5 1022.5 0.0
20/09:30pm 8.4 5.9 4.6 77 1.7 WNW 7 11 4 6 1022.8 1022.8 0.0
20/09:00pm 8.4 5.9 4.8 78 1.6 WNW 7 9 4 5 1022.9 1022.9 0.0
20/08:30pm 8.5 6.2 4.9 78 1.6 WNW 6 9 3 5 1023.1 1023.1 0.0
20/08:00pm 8.7 6.3 5.1 78 1.6 WNW 7 11 4 6 1023.3 1023.3 0.0
20/07:30pm 8.6 6.1 5.0 78 1.6 W 7 11 4 6 1023.3 1023.3 0.0
20/07:00pm 8.8 6.3 4.8 76 1.8 WNW 7 9 4 5 1023.2 1023.2 0.0
20/06:30pm 8.6 6.0 4.2 74 1.9 W 7 11 4 6 1023.0 1023.0 0.0
20/06:00pm 9.1 6.6 4.5 73 2.0 WNW 7 11 4 6 1022.6 1022.6 0.0
20/05:30pm 9.3 6.9 4.5 72 2.1 WNW 6 9 3 5 1022.5 1022.5 0.0
20/05:00pm 9.9 7.4 4.7 70 2.3 WSW 7 11 4 6 1022.4 1022.4 0.0
20/04:30pm 10.2 7.7 4.8 69 2.4 WSW 7 13 4 7 1022.3 1022.3 0.0
20/04:00pm 10.5 7.3 4.9 68 2.5 SSW 11 17 6 9 1022.1 1022.1 0.0
20/03:30pm 11.3 8.0 4.7 64 3.0 SSW 11 15 6 8 1022.0 1022.0 0.0
20/03:00pm 11.8 8.8 4.3 60 3.4 SW 9 17 5 9 1022.0 1022.0 0.0
20/02:30pm 12.2 8.8 4.2 58 3.6 SW 11 17 6 9 1022.1 1022.1 0.0
20/02:00pm 13.0 10.1 4.7 57 3.8 WSW 9 17 5 9 1022.4 1022.4 0.0
20/01:30pm 12.3 9.4 4.8 60 3.4 WSW 9 17 5 9 1022.6 1022.6 0.0
20/01:00pm 11.7 8.4 4.4 61 3.3 WSW 11 15 6 8 1023.1 1023.1 0.0
20/12:30pm 11.6 7.9 4.3 61 3.3 W 13 20 7 11 1023.7 1023.7 0.0
20/12:00pm 11.2 7.1 4.4 63 3.0 WSW 15 24 8 13 1024.3 1024.4 0.0
20/11:30am 10.3 6.6 4.7 68 2.5 WSW 13 20 7 11 1024.9 1025.0 0.0
20/11:00am 10.8 7.0 4.0 63 3.0 W 13 24 7 13 1025.1 1025.2 0.0
20/10:30am 10.2 6.8 4.1 66 2.7 WNW 11 19 6 10 1025.3 1025.4 0.0
20/10:00am 9.7 6.3 4.1 68 2.5 WNW 11 17 6 9 1025.2 1025.3 0.0
20/09:30am 9.5 6.1 4.1 69 2.4 WNW 11 19 6 10 1025.0 1025.1 0.0
20/09:00am 8.8 5.4 4.0 72 2.1 WNW 11 17 6 9 1024.9 1025.0 0.4
20/08:30am 8.4 4.6 3.8 73 2.0 WNW 13 20 7 11 1024.8 1024.9 0.4
20/08:00am 8.1 5.0 3.8 74 1.8 WNW 9 17 5 9 1024.8 1024.9 0.4
20/07:30am 8.1 4.3 3.8 74 1.9 W 13 20 7 11 1024.8 1024.9 0.4
20/07:00am 7.8 4.4 3.8 76 1.7 W 11 19 6 10 1024.5 1024.6 0.4
20/06:30am 7.2 4.1 3.4 77 1.6 WNW 9 15 5 8 1024.3 1024.4 0.4
20/06:00am 7.5 4.4 3.4 75 1.7 W 9 19 5 10 1024.1 1024.2 0.4
20/05:30am 8.0 4.2 3.8 75 1.8 W 13 20 7 11 1024.1 1024.2 0.4
20/05:00am 8.1 4.3 3.9 75 1.8 WNW 13 28 7 15 1023.9 1023.9 0.4
20/04:30am 8.2 4.0 4.0 75 1.8 W 15 20 8 11 1023.7 1023.7 0.4
20/04:00am 8.0 4.2 4.0 76 1.7 W 13 22 7 12 1023.7 1023.7 0.4
20/03:30am 8.1 3.9 3.9 75 1.8 W 15 26 8 14 1023.8 1023.8 0.4
20/03:00am 8.1 3.9 3.9 75 1.8 W 15 20 8 11 1023.9 1023.9 0.4
20/02:30am 8.3 4.2 4.3 76 1.7 W 15 24 8 13 1024.0 1024.0 0.4
20/02:00am 8.3 4.5 4.1 75 1.8 W 13 22 7 12 1024.0 1024.0 0.4
20/01:30am 8.3 4.2 4.3 76 1.7 W 15 28 8 15 1023.8 1023.8 0.4
20/01:00am 8.0 3.9 4.2 77 1.6 W 15 24 8 13 1023.8 1023.8 0.4
20/12:30am 7.6 3.5 4.2 79 1.5 W 15 28 8 15 1023.8 1023.8 0.4
20/12:00am 7.5 3.4 4.1 79 1.5 W 15 22 8 12 1024.0 1024.0 0.4
 
Date/Time
EST
Temp
°C
App
Temp
°C
Dew
Point
°C
Rel
Hum
%
Delta-T
°C
Wind Press
QNH
hPa
Press
MSL
hPa
Rain since
9am
mm
Dir  Spd
km/h
Gust
km/h
Spd
kts
Gust
kts
19/11:30pm 7.5 3.4 4.3 80 1.4 W 15 24 8 13 1023.9 1023.9 0.4
19/11:00pm 7.7 3.6 4.3 79 1.5 WNW 15 22 8 12 1024.0 1024.0 0.2
19/10:30pm 7.6 3.9 4.2 79 1.5 W 13 24 7 13 1024.2 1024.3 0.2
19/10:00pm 8.0 3.9 4.6 79 1.5 WNW 15 24 8 13 1024.1 1024.2 0.2
19/09:30pm 8.3 4.2 4.3 76 1.7 W 15 22 8 12 1024.2 1024.3 0.2
19/09:00pm 8.4 4.3 4.2 75 1.8 W 15 24 8 13 1024.0 1024.0 0.2
19/08:30pm 8.3 3.8 4.1 75 1.8 W 17 26 9 14 1023.9 1023.9 0.2
19/08:00pm 8.2 4.0 3.9 74 1.9 WNW 15 24 8 13 1024.0 1024.0 0.2
19/07:30pm 8.1 4.7 3.9 75 1.8 WNW 11 19 6 10 1023.9 1023.9 0.2
19/07:00pm 8.4 4.2 4.0 74 1.9 W 15 26 8 14 1023.8 1023.8 0.2
19/06:30pm 9.0 5.7 4.4 73 2.0 W 11 19 6 10 1023.6 1023.6 0.2
19/06:00pm 8.9 5.2 4.3 73 2.0 W 13 24 7 13 1023.1 1023.1 0.2
19/05:30pm 9.4 4.6 4.6 72 2.1 WSW 19 35 10 19 1023.0 1023.0 0.2
19/05:00pm 9.4 5.4 5.0 74 2.0 W 15 26 8 14 1022.7 1022.7 0.2
19/04:30pm 9.5 4.7 4.9 73 2.1 SW 19 32 10 17 1022.7 1022.7 0.0
19/04:00pm 11.4 6.5 3.9 60 3.3 WSW 19 37 10 20 1022.2 1022.2 0.0
19/03:30pm 11.9 7.7 3.9 58 3.6 SW 15 26 8 14 1021.9 1021.9 0.0
19/03:00pm 11.4 7.3 4.2 61 3.2 SW 15 26 8 14 1021.9 1021.9 0.0
19/02:30pm 11.8 6.9 4.1 59 3.5 WSW 19 41 10 22 1021.6 1021.6 0.0
19/02:00pm 11.8 6.7 4.1 59 3.4 SW 20 33 11 18 1021.5 1021.5 0.0
19/01:30pm 12.4 7.0 4.4 58 3.6 WSW 22 35 12 19 1021.3 1021.3 0.0
19/01:00pm 12.3 7.3 4.5 59 3.5 WSW 20 39 11 21 1021.6 1021.6 0.0
19/12:30pm 12.1 6.3 4.3 59 3.5 WSW 24 43 13 23 1021.7 1021.7 0.0
19/12:00pm 12.3 6.9 4.3 58 3.6 WSW 22 43 12 23 1021.7 1021.7 0.0
19/11:30am 11.9 6.4 3.9 58 3.6 WSW 22 39 12 21 1021.8 1021.8 0.0
19/11:00am 11.4 6.3 4.2 61 3.2 WSW 20 39 11 21 1021.8 1021.8 0.0
19/10:30am 10.8 6.4 4.5 65 2.8 WSW 17 30 9 16 1021.9 1021.9 0.0
19/10:00am 9.4 5.7 4.6 72 2.1 W 13 28 7 15 1021.7 1021.7 0.0
19/09:30am 10.6 6.8 4.1 64 2.9 W 13 32 7 17 1021.5 1021.5 0.0
19/09:00am 8.9 4.6 3.1 67 2.5 W 15 32 8 17 1021.6 1021.6 0.0
19/08:30am 8.9 4.9 2.7 65 2.6 W 13 22 7 12 1021.2 1021.2 0.0
19/08:00am 8.1 4.0 2.4 67 2.4 WNW 13 28 7 15 1020.9 1020.9 0.0
19/07:30am 8.4 3.6 2.6 67 2.4 W 17 33 9 18 1020.7 1020.7 0.0
19/07:00am 7.8 2.9 2.3 68 2.3 W 17 32 9 17 1020.3 1020.3 0.0
19/06:30am 7.9 2.4 2.0 66 2.4 W 20 39 11 21 1019.8 1019.8 0.0
19/06:00am 8.1 2.6 2.1 66 2.5 W 20 37 11 20 1019.6 1019.6 0.0
19/05:30am 8.2 3.0 2.2 66 2.5 W 19 33 10 18 1019.2 1019.2 0.0
19/05:00am 8.2 3.7 2.2 66 2.5 W 15 28 8 15 1019.2 1019.2 0.0
19/04:30am 8.0 4.3 2.3 67 2.4 W 11 24 6 13 1019.3 1019.3 0.0
19/04:00am 7.9 4.6 2.2 67 2.4 W 9 20 5 11 1019.4 1019.4 0.0
19/03:30am 8.3 3.4 2.3 66 2.5 W 17 30 9 16 1019.4 1019.4 0.0
19/03:00am 8.4 3.6 2.6 67 2.4 W 17 30 9 16 1019.3 1019.3 0.0
19/02:30am 8.4 3.6 2.6 67 2.4 W 17 33 9 18 1019.2 1019.2 0.0
19/02:00am 8.5 3.8 2.9 68 2.4 WSW 17 28 9 15 1019.3 1019.3 0.0
19/01:30am 8.1 4.1 3.0 70 2.2 W 13 19 7 10 1019.0 1019.0 0.0
19/01:00am 8.0 4.9 3.5 73 1.9 W 9 17 5 9 1019.1 1019.1 0.0
19/12:30am 8.1 4.2 3.6 73 1.9 W 13 22 7 12 1019.0 1019.0 0.0
19/12:00am 8.4 4.2 4.0 74 1.9 W 15 22 8 12 1018.9 1018.9 0.0
 
Date/Time
EST
Temp
°C
App
Temp
°C
Dew
Point
°C
Rel
Hum
%
Delta-T
°C
Wind Press
QNH
hPa
Press
MSL
hPa
Rain since
9am
mm
Dir  Spd
km/h
Gust
km/h
Spd
kts
Gust
kts
18/11:30pm 8.5 5.9 4.3 75 1.8 WNW 7 13 4 7 1019.1 1019.1 0.0
18/11:00pm 8.8 5.9 4.8 76 1.8 WNW 9 15 5 8 1019.1 1019.1 0.0
18/10:30pm 9.2 6.0 5.2 76 1.8 W 11 20 6 11 1019.0 1019.0 0.0
18/10:00pm 9.6 6.9 5.4 75 1.9 W 9 17 5 9 1018.9 1018.9 0.0
18/09:30pm 10.2 6.8 6.0 75 1.9 WSW 13 24 7 13 1018.5 1018.5 0.0
18/09:00pm 10.6 7.4 6.7 77 1.8 WSW 13 28 7 15 1018.2 1018.2 0.0
18/08:30pm 9.5 7.3 6.2 80 1.5 WNW 7 11 4 6 1017.8 1017.8 0.0
18/08:00pm 9.5 7.4 6.0 79 1.6 WNW 6 9 3 5 1017.7 1017.7 0.0
18/07:30pm 9.5 7.2 5.7 77 1.7 W 7 13 4 7 1017.7 1017.7 0.0
18/07:00pm 9.5 6.7 5.1 74 2.0 WSW 9 15 5 8 1017.6 1017.6 0.0
18/06:30pm 9.3 6.5 5.3 76 1.8 WNW 9 15 5 8 1016.8 1016.8 0.0
18/06:00pm 8.7 6.1 4.3 74 1.9 WNW 7 9 4 5 1016.4 1016.4 0.0
18/05:30pm 9.9 7.6 4.9 71 2.2 WNW 6 7 3 4 1016.1 1016.1 0.0
18/05:00pm 10.7 9.6 5.0 68 2.6 CALM 0 4 0 2 1015.8 1015.8 0.0
18/04:30pm 12.3 10.8 5.2 62 3.3 N 2 7 1 4 1015.6 1015.6 0.0
18/04:00pm 13.2 10.9 4.9 57 3.8 NNW 6 9 3 5 1015.4 1015.4 0.0
18/03:30pm 13.9 11.2 5.5 57 4.0 NNW 9 15 5 8 1015.4 1015.4 0.0
18/03:00pm 14.3 11.8 6.6 60 3.7 NW 9 13 5 7 1015.6 1015.6 0.0
18/02:30pm 14.7 12.3 7.0 60 3.8 NW 9 17 5 9 1015.6 1015.6 0.0
18/02:00pm 15.1 12.1 7.9 62 3.6 NNW 13 19 7 10 1015.7 1015.7 0.0
18/01:30pm 15.8 13.2 6.3 53 4.6 N 9 15 5 8 1015.8 1015.8 0.0
18/01:00pm 15.8 13.5 7.3 57 4.2 WNW 9 13 5 7 1016.3 1016.3 0.0
18/12:30pm 15.4 13.2 7.7 60 3.8 NW 9 13 5 7 1016.7 1016.7 0.0
18/12:00pm 15.4 12.7 7.2 58 4.0 NW 11 17 6 9 1016.9 1016.9 0.0
18/11:30am 15.3 12.8 8.1 62 3.6 NW 11 15 6 8 1017.2 1017.2 0.0
18/11:00am 14.6 12.0 7.9 64 3.3 NNW 11 19 6 10 1017.6 1017.6 0.0
18/10:30am 13.8 11.0 7.1 64 3.3 NW 11 20 6 11 1017.9 1017.9 0.0
18/10:00am 11.9 8.7 6.8 71 2.4 NW 13 20 7 11 1018.3 1018.3 0.0
18/09:30am 11.8 9.8 7.3 74 2.2 NW 7 11 4 6 1018.3 1018.3 0.0
18/09:00am 11.7 9.9 8.0 78 1.8 NW 7 13 4 7 1018.2 1018.2 0.0
18/08:30am 10.7 8.4 7.6 81 1.5 NW 9 13 5 7 1018.3 1018.3 0.0
18/08:00am 9.1 6.6 6.4 83 1.2 NW 9 13 5 7 1018.5 1018.5 0.0
18/07:30am 8.7 5.7 5.8 82 1.3 NW 11 13 6 7 1018.4 1018.4 0.0
18/07:00am 8.8 5.4 6.1 83 1.2 WNW 13 17 7 9 1018.4 1018.4 0.0
18/06:30am 9.5 6.4 7.3 86 1.0 WNW 13 19 7 10 1018.3 1018.3 0.0
18/06:00am 9.3 6.5 7.1 86 1.0 NW 11 15 6 8 1018.5 1018.5 0.0
18/05:30am 8.6 5.3 6.6 87 0.9 WNW 13 17 7 9 1018.4 1018.4 0.0
18/05:00am 8.8 5.6 6.8 87 0.9 WNW 13 15 7 8 1018.4 1018.4 0.0
18/04:30am 9.1 6.0 7.1 87 0.9 WNW 13 17 7 9 1018.5 1018.5 0.0
18/04:00am 9.2 6.1 7.2 87 0.9 NW 13 19 7 10 1018.6 1018.6 0.0
18/03:30am 9.2 6.5 7.2 87 0.9 NW 11 13 6 7 1018.6 1018.6 0.0
18/03:00am 9.1 6.7 6.9 86 1.0 NNW 9 13 5 7 1018.8 1018.8 0.0
18/02:30am 10.0 7.8 7.8 86 1.1 NW 9 13 5 7 1019.3 1019.3 0.0
18/02:00am 9.9 7.3 7.7 86 1.1 NW 11 13 6 7 1019.3 1019.3 0.0
18/01:30am 10.0 7.8 7.8 86 1.1 NNW 9 11 5 6 1019.7 1019.7 0.0
18/01:00am 10.0 7.8 7.8 86 1.1 NW 9 13 5 7 1020.0 1020.0 0.0
18/12:30am 10.3 7.4 8.2 87 1.0 NNW 13 17 7 9 1020.3 1020.3 0.0
18/12:00am 9.8 7.2 7.9 88 0.9 NNW 11 13 6 7 1020.6 1020.6 0.0
 
Date/Time
EST
Temp
°C
App
Temp
°C
Dew
Point
°C
Rel
Hum
%
Delta-T
°C
Wind Press
QNH
hPa
Press
MSL
hPa
Rain since
9am
mm
Dir  Spd
km/h
Gust
km/h
Spd
kts
Gust
kts
17/11:30pm 10.3 7.8 8.4 88 0.9 NNW 11 15 6 8 1020.9 1020.9 0.0
17/11:00pm 10.2 7.7 8.3 88 0.9 NW 11 15 6 8 1021.2 1021.2 0.0
17/10:30pm 10.3 7.5 8.6 89 0.8 NW 13 17 7 9 1021.4 1021.4 0.0

Other formats

Comma delimited format used in spreadsheet applications
http://www.bom.gov.au/fwo/IDV60801/IDV60801.94935.axf

JavaScript Object Notation format (JSON) in row-major order
http://www.bom.gov.au/fwo/IDV60801/IDV60801.94935.json

Data quality

Most of these data are generated automatically and are frequently updated. Quality checks on data are not normally performed. It is possible for incorrect values to appear. Refer to information at About Latest Weather Observations and please check the disclaimer before using these data.